WetterOnline ( http://www.wetteronline.de )

Wetter aktuell Ulm

Aktuelles Wetter: Ulm-Mähringen (592m)

6-stündlich | Neueste Meldungen
Ortszeit Temperatur Wetter
Mo, 20.08. 14:00 25.9° C fast wolkenlos
Mo, 20.08. 8:00 17.2° C wolkenlos
Mo, 20.08. 2:00 19.4° C fast wolkenlos
So, 19.08. 20:00 25.8° C wolkenlos
So, 19.08. 14:00 25.9° C bewölkt
So, 19.08. 8:00 15.8° C wolkenlos
So, 19.08. 2:00 17.9° C leicht bewölkt
Sa, 18.08. 20:00 23.9° C wolkenlos
Ortszeit Temperatur Wetter
Mo, 20.08. 16:00 28.4° C wolkenlos
Mo, 20.08. 15:50 28.4° C wolkenlos
Mo, 20.08. 15:40 27.8° C wolkenlos
Mo, 20.08. 15:30 27.6° C fast wolkenlos
Mo, 20.08. 15:20 27.6° C fast wolkenlos
Mo, 20.08. 15:10 28.1° C fast wolkenlos
Mo, 20.08. 15:00 27.2° C wolkenlos
Mo, 20.08. 14:30 27.6° C wolkenlos
Mo, 20.08. 14:00 25.9° C fast wolkenlos
Mo, 20.08. 13:30 27.4° C fast wolkenlos
Mo, 20.08. 13:00 27.0° C fast wolkenlos
Ortszeit Relative Feuchte Sichtweite
Mo, 20.08. 14:00 40% 23 km
Mo, 20.08. 8:00 70% 40 km
Mo, 20.08. 2:00 63% 45 km
So, 19.08. 20:00 45% 45 km
So, 19.08. 14:00 43% 45 km
So, 19.08. 8:00 76% 30 km
So, 19.08. 2:00 72% 30 km
Sa, 18.08. 20:00 55% 30 km
Ortszeit Relative Feuchte Sichtweite
Mo, 20.08. 16:00 36% 25 km
Mo, 20.08. 15:50 36% -
Mo, 20.08. 15:40 35% -
Mo, 20.08. 15:30 37% 30 km
Mo, 20.08. 15:20 37% -
Mo, 20.08. 15:10 36% -
Mo, 20.08. 15:00 37% 26 km
Mo, 20.08. 14:30 37% 19 km
Mo, 20.08. 14:00 40% 23 km
Mo, 20.08. 13:30 38% 26 km
Mo, 20.08. 13:00 40% 26 km
Ortszeit Niederschlagsmenge Niederschlagsart
Mo, 20.08. 14:00 0.0 l/m2 in 6 Std. -
Mo, 20.08. 8:00 0.0 l/m2 in 12 Std. -
Mo, 20.08. 2:00 0.0 l/m2 in 6 Std. -
So, 19.08. 20:00 0.0 l/m2 in 12 Std. -
So, 19.08. 14:00 0.0 l/m2 in 6 Std. -
So, 19.08. 8:00 0.0 l/m2 in 12 Std. -
So, 19.08. 2:00 0.0 l/m2 in 6 Std. -
Sa, 18.08. 20:00 0.1 l/m2 in 12 Std. -
Ortszeit Niederschlagsmenge Niederschlagsart
Mo, 20.08. 16:00 0.0 l/m2 in 1 Std. -
Mo, 20.08. 15:50 keine Meldung -
Mo, 20.08. 15:40 keine Meldung -
Mo, 20.08. 15:30 0.0 l/m2 in 1 Std. -
Mo, 20.08. 15:20 keine Meldung -
Mo, 20.08. 15:10 keine Meldung -
Mo, 20.08. 15:00 0.0 l/m2 in 1 Std. -
Mo, 20.08. 14:30 0.0 l/m2 in 1 Std. -
Mo, 20.08. 14:00 0.0 l/m2 in 1 Std. -
Mo, 20.08. 13:30 0.0 l/m2 in 1 Std. -
Mo, 20.08. 13:00 0.0 l/m2 in 1 Std. -
Ortszeit Stärke Spitze Richtung
km/h Bft. km/h Grad Sektor
Mo, 20.08. 14:00 17 3 33 250° W
Mo, 20.08. 8:00 4 1 11 240° SW
Mo, 20.08. 2:00 4 1 18 290° W
So, 19.08. 20:00 13 3 22 340° N
So, 19.08. 14:00 7 2 18 50° NO
So, 19.08. 8:00 4 1 11 270° W
So, 19.08. 2:00 9 2 19 330° NW
Sa, 18.08. 20:00 14 3 25 330° NW
Ortszeit Stärke Spitze Richtung
km/h Bft. km/h Grad Sektor
Mo, 20.08. 16:00 14 3 29 290° W
Mo, 20.08. 15:50 14 3 - 290° W
Mo, 20.08. 15:40 13 3 - 320° NW
Mo, 20.08. 15:30 11 2 26 310° NW
Mo, 20.08. 15:20 11 2 - 310° NW
Mo, 20.08. 15:10 11 2 - 310° NW
Mo, 20.08. 15:00 11 2 29 300° NW
Mo, 20.08. 14:30 13 3 28 270° W
Mo, 20.08. 14:00 17 3 33 250° W
Mo, 20.08. 13:30 11 2 29 300° NW
Mo, 20.08. 13:00 15 3 28 310° NW
Ortszeit Untergrenze Bedeckung Gattung
total tief tief mittel hoch
Mo, 20.08. 14:00 1800 m 1/8 1/8 - - -
Mo, 20.08. 8:00 - 0/8 0/8 - - -
Mo, 20.08. 2:00 2400 m 1/8 1/8 - - -
So, 19.08. 20:00 2400 m 0/8 0/8 - - -
So, 19.08. 14:00 2100 m 7/8 7/8 - - -
So, 19.08. 8:00 - 0/8 0/8 - - -
So, 19.08. 2:00 1800 m 3/8 3/8 - - -
Sa, 18.08. 20:00 - 0/8 0/8 - - -
Ortszeit Bedeckungsgrad in Achtel und Wolkenuntergrenze
Mo, 20.08. 16:00 keine Wolken
Mo, 20.08. 15:50 keine Wolken
Mo, 20.08. 15:40 keine Wolken
Mo, 20.08. 15:30 1(1800m)
Mo, 20.08. 15:20 1(1800m)
Mo, 20.08. 15:10 1(1800m)
Mo, 20.08. 15:00 keine Wolken
Mo, 20.08. 14:30 keine Wolken
Mo, 20.08. 14:00 1(1800m)
Mo, 20.08. 13:30 1(1800m)
Mo, 20.08. 13:00 1(1800m)
Ortszeit Luftdruck NN (hPa) Tendenz (hPa in 3 Std.)
Mo, 20.08. 14:00 1017 - 0,7
Mo, 20.08. 8:00 1020 + 0,5
Mo, 20.08. 2:00 1019 0,0
So, 19.08. 20:00 1017 - 0,4
So, 19.08. 14:00 1019 - 1,1
So, 19.08. 8:00 1022 + 0,2
So, 19.08. 2:00 1022 + 0,1
Sa, 18.08. 20:00 1019 + 0,2
Ortszeit Luftdruck NN (hPa) Tendenz (hPa in 3 Std.)
Mo, 20.08. 16:00 1016 - 1,1
Mo, 20.08. 15:50 1016 keine Meldung
Mo, 20.08. 15:40 1016 keine Meldung
Mo, 20.08. 15:30 1016 - 0,9
Mo, 20.08. 15:20 1016 keine Meldung
Mo, 20.08. 15:10 1016 keine Meldung
Mo, 20.08. 15:00 1017 - 0,8
Mo, 20.08. 14:30 1017 - 0,8
Mo, 20.08. 14:00 1017 - 0,7
Mo, 20.08. 13:30 1017 - 0,6
Mo, 20.08. 13:00 1017 - 0,5
Ortszeit Schneehöhe (cm)
Mo, 20.08. 14:00 -
Mo, 20.08. 8:00 -
Mo, 20.08. 2:00 -
So, 19.08. 20:00 -
So, 19.08. 14:00 -
So, 19.08. 8:00 -
So, 19.08. 2:00 -
Sa, 18.08. 20:00 -
Ortszeit Schneehöhe (cm)
Mo, 20.08. 16:00 -
Mo, 20.08. 15:50 -
Mo, 20.08. 15:40 -
Mo, 20.08. 15:30 -
Mo, 20.08. 15:20 -
Mo, 20.08. 15:10 -
Mo, 20.08. 15:00 -
Mo, 20.08. 14:30 -
Mo, 20.08. 14:00 -
Mo, 20.08. 13:30 -
Mo, 20.08. 13:00 -
Link zu dieser Seite / Seite empfehlen

Das Wetter in ...